Time;durP1;ratioP1;P1;durP2;ratioP2;P2;SDS_P1;SDS_P2;PMS_P1;PMS_P2;Temp;Humidity;BMP_temperature;BMP_pressure;BME280_temperature;BME280_humidity;BME280_pressure;Samples;Min_cycle;Max_cycle;Signal;HPM_P1;HPM_P2
2023/01/12 00:00:54;;;;;;;14.75;4.72;;;;;;;7.23;100.00;100166.16;5052169;28;20025;-68
2023/01/12 00:03:20;;;;;;;24.10;5.53;;;;;;;7.20;100.00;100152.28;5052387;28;20086;-68
2023/01/12 00:05:45;;;;;;;18.33;5.65;;;;;;;7.31;100.00;100166.69;5034548;28;20024;-68
2023/01/12 00:08:11;;;;;;;15.07;5.60;;;;;;;7.20;100.00;100136.63;5051837;28;20111;-68
2023/01/12 00:10:36;;;;;;;18.98;5.25;;;;;;;7.28;100.00;100146.75;5052282;28;20033;-69
2023/01/12 00:13:01;;;;;;;20.88;5.43;;;;;;;7.35;100.00;100150.81;5052379;28;20057;-68
2023/01/12 00:16:33;;;;;;;18.30;5.93;;;;;;;7.26;100.00;100151.22;5034458;28;20112;-68
2023/01/12 00:18:21;;;;;;;13.18;5.07;;;;;;;7.28;100.00;100143.28;5051088;28;20046;-68
2023/01/12 00:20:47;;;;;;;13.60;4.63;;;;;;;7.26;100.00;100137.28;5052106;28;20048;-68
2023/01/12 00:23:12;;;;;;;12.55;5.07;;;;;;;7.36;100.00;100146.44;5026650;28;20384;-69
2023/01/12 00:25:38;;;;;;;16.40;5.20;;;;;;;7.41;100.00;100144.47;5067900;28;20029;-68
2023/01/12 00:28:03;;;;;;;22.20;5.53;;;;;;;7.38;100.00;100128.94;5051580;28;20021;-69
2023/01/12 00:30:29;;;;;;;15.32;5.57;;;;;;;7.39;100.00;100130.66;5036593;28;20032;-67
2023/01/12 00:32:54;;;;;;;17.90;5.95;;;;;;;7.36;100.00;100117.72;5056121;28;20108;-67
2023/01/12 00:35:19;;;;;;;20.70;6.15;;;;;;;7.38;100.00;100108.88;5056259;28;20376;-68
2023/01/12 00:37:45;;;;;;;22.42;6.18;;;;;;;7.43;100.00;100122.63;5055755;28;20025;-68
2023/01/12 00:40:11;;;;;;;15.40;5.68;;;;;;;7.39;100.00;100109.72;5038299;28;20029;-68
2023/01/12 00:45:20;;;;;;;15.65;6.18;;;;;;;7.48;100.00;100096.28;5055949;28;20051;-68
2023/01/12 00:47:45;;;;;;;13.50;5.15;;;;;;;7.47;100.00;100102.44;5055384;28;20017;-68
2023/01/12 00:50:11;;;;;;;10.32;4.65;;;;;;;7.49;100.00;100105.81;5037717;28;20068;-67
2023/01/12 00:52:36;;;;;;;15.13;5.00;;;;;;;7.42;100.00;100088.69;5055405;28;20027;-69
2023/01/12 00:55:01;;;;;;;15.77;5.40;;;;;;;7.47;100.00;100110.28;5055953;28;20463;-68
2023/01/12 00:57:27;;;;;;;18.05;5.03;;;;;;;7.42;100.00;100099.16;5055455;28;20037;-68
2023/01/12 00:59:53;;;;;;;21.08;5.93;;;;;;;7.34;100.00;100080.31;5055917;28;20108;-67
2023/01/12 01:02:19;;;;;;;12.45;5.70;;;;;;;7.42;100.00;100083.47;5054108;28;20064;-67
2023/01/12 01:04:44;;;;;;;21.05;5.15;;;;;;;7.49;100.00;100088.38;5021071;28;20975;-67
2023/01/12 01:07:12;;;;;;;19.60;5.80;;;;;;;7.48;100.00;100089.28;5049743;28;20076;-68
2023/01/12 01:09:37;;;;;;;16.42;5.65;;;;;;;7.48;100.00;100054.44;5047892;28;20028;-68
2023/01/12 01:12:03;;;;;;;12.80;5.55;;;;;;;7.54;100.00;100077.69;5055396;28;20025;-67
2023/01/12 01:14:28;;;;;;;19.35;5.80;;;;;;;7.54;100.00;100083.78;5055385;28;20025;-67
2023/01/12 01:16:54;;;;;;;18.10;5.75;;;;;;;7.50;100.00;100063.09;5018735;28;20095;-67
2023/01/12 01:19:19;;;;;;;17.98;4.80;;;;;;;7.56;100.00;100081.13;5037376;28;20024;-67
2023/01/12 01:21:44;;;;;;;15.10;5.53;;;;;;;7.49;100.00;100053.53;5055091;28;20033;-67
2023/01/12 01:24:11;;;;;;;12.32;4.95;;;;;;;7.53;100.00;100070.78;5054947;28;20024;-67
2023/01/12 01:26:37;;;;;;;16.13;4.82;;;;;;;7.62;100.00;100070.38;5037066;28;20029;-67
2023/01/12 01:29:02;;;;;;;12.63;5.90;;;;;;;7.39;100.00;100032.19;5055245;28;20029;-67
2023/01/12 01:31:28;;;;;;;18.38;6.63;;;;;;;7.68;100.00;100064.88;5055403;28;20494;-67
2023/01/12 01:33:53;;;;;;;14.38;4.90;;;;;;;7.63;100.00;100066.88;5054225;28;20476;-67
2023/01/12 01:36:19;;;;;;;26.73;6.30;;;;;;;7.72;100.00;100066.47;5036204;28;20033;-67
2023/01/12 01:38:46;;;;;;;20.92;5.47;;;;;;;7.61;100.00;100040.78;5054530;28;20109;-66
2023/01/12 01:41:36;;;;;;;13.27;5.43;;;;;;;7.75;100.00;100058.47;5054474;28;20063;-66
2023/01/12 01:44:04;;;;;;;21.33;5.63;;;;;;;7.75;100.00;100042.78;5054178;28;20570;-67
2023/01/12 01:46:45;;;;;;;20.08;5.10;;;;;;;7.79;100.00;100052.19;5054697;28;20052;-67
2023/01/12 01:49:16;;;;;;;22.67;5.60;;;;;;;7.81;100.00;100050.34;5054647;28;20107;-67
2023/01/12 01:51:42;;;;;;;21.75;6.45;;;;;;;7.81;100.00;100054.75;5035390;28;20025;-67
2023/01/12 01:54:08;;;;;;;22.55;5.13;;;;;;;7.82;100.00;100040.75;5054473;28;20657;-67
2023/01/12 01:56:33;;;;;;;11.13;4.60;;;;;;;7.85;100.00;100032.75;5070600;28;20029;-66
2023/01/12 01:59:21;;;;;;;22.92;5.65;;;;;;;7.59;100.00;99998.19;5053868;28;20025;-67
2023/01/12 02:01:47;;;;;;;13.73;5.07;;;;;;;7.78;100.00;100040.03;5035091;28;20068;-67
2023/01/12 02:04:13;;;;;;;11.20;4.38;;;;;;;7.79;100.00;100019.97;5028655;28;20049;-69
2023/01/12 02:06:38;;;;;;;15.38;5.35;;;;;;;7.77;100.00;100008.72;5064965;28;20395;-68
2023/01/12 02:09:18;;;;;;;19.73;4.95;;;;;;;7.78;100.00;100013.88;5036453;28;20054;-68
2023/01/12 02:17:31;;;;;;;16.00;4.33;;;;;;;7.76;100.00;100020.97;5043698;28;20064;-68
2023/01/12 02:20:14;;;;;;;13.37;4.80;;;;;;;7.74;100.00;100012.31;5054201;28;20742;-68
2023/01/12 02:22:46;;;;;;;14.02;5.47;;;;;;;7.75;100.00;100007.94;5053990;28;20032;-68
2023/01/12 02:25:21;;;;;;;20.27;5.88;;;;;;;7.74;100.00;100011.50;5042341;28;20349;-67
2023/01/12 02:28:07;;;;;;;31.15;6.55;;;;;;;7.71;100.00;100013.31;5054208;28;20037;-66
2023/01/12 02:31:00;;;;;;;17.30;5.43;;;;;;;7.64;100.00;100016.25;5053854;28;20029;-68
2023/01/12 02:33:38;;;;;;;15.13;5.00;;;;;;;7.66;100.00;100009.22;5041887;28;20032;-68
2023/01/12 02:36:25;;;;;;;17.17;5.63;;;;;;;7.62;100.00;100007.66;5053865;28;20029;-68
2023/01/12 02:39:01;;;;;;;19.25;5.68;;;;;;;7.58;100.00;100004.31;5054241;28;20471;-68
2023/01/12 02:44:30;;;;;;;16.95;5.78;;;;;;;7.56;100.00;99997.47;5035601;28;20107;-69
2023/01/12 02:46:57;;;;;;;15.80;5.68;;;;;;;7.40;100.00;99971.13;5053642;28;20494;-69
2023/01/12 02:49:25;;;;;;;16.20;5.55;;;;;;;7.51;100.00;99973.28;5052170;28;20028;-69
2023/01/12 02:51:57;;;;;;;21.98;5.88;;;;;;;7.57;100.00;99973.03;5035140;28;20454;-69
2023/01/12 02:54:23;;;;;;;15.30;5.68;;;;;;;7.60;100.00;99972.88;5033318;28;20870;-69
2023/01/12 02:56:54;;;;;;;22.13;5.78;;;;;;;7.55;100.00;99954.78;5035078;28;20545;-68
2023/01/12 02:59:29;;;;;;;15.05;4.90;;;;;;;7.55;100.00;99953.94;5034937;28;20028;-68
2023/01/12 03:02:10;;;;;;;18.58;6.28;;;;;;;7.53;100.00;99945.31;5060639;28;20487;-68
2023/01/12 03:04:35;;;;;;;27.55;5.10;;;;;;;7.41;100.00;99935.41;5025040;28;20029;-69
2023/01/12 03:07:00;;;;;;;17.77;6.05;;;;;;;7.60;100.00;99954.59;5046564;28;20028;-68
2023/01/12 03:09:40;;;;;;;14.00;5.45;;;;;;;7.51;100.00;99941.91;5053150;28;20368;-68
2023/01/12 03:12:09;;;;;;;13.63;5.03;;;;;;;7.55;100.00;99940.84;5053452;28;20497;-68
2023/01/12 03:14:36;;;;;;;25.92;5.88;;;;;;;7.58;100.00;99938.09;5035471;28;20033;-68
2023/01/12 03:17:19;;;;;;;13.40;5.07;;;;;;;7.44;100.00;99920.44;5032813;28;20032;-68
2023/01/12 03:19:44;;;;;;;14.57;4.85;;;;;;;7.62;100.00;99937.06;5034648;28;20025;-67
2023/01/12 03:22:12;;;;;;;20.33;5.13;;;;;;;7.59;100.00;99924.97;5035113;28;20091;-68
2023/01/12 03:24:44;;;;;;;17.08;5.60;;;;;;;7.59;100.00;99919.75;5050888;28;20071;-67
2023/01/12 03:27:19;;;;;;;13.07;4.35;;;;;;;7.63;100.00;99936.16;5033667;28;20025;-68
2023/01/12 03:29:56;;;;;;;18.55;4.93;;;;;;;7.60;100.00;99915.38;5034990;28;20075;-69
2023/01/12 03:32:22;;;;;;;23.63;4.70;;;;;;;7.64;100.00;99922.13;5046939;28;20033;-68
2023/01/12 03:34:48;;;;;;;16.30;4.70;;;;;;;7.57;100.00;99907.66;5051995;28;20033;-68
2023/01/12 03:37:25;;;;;;;22.70;5.35;;;;;;;7.68;100.00;99905.38;5017092;28;20090;-68
2023/01/12 03:39:53;;;;;;;10.32;4.90;;;;;;;7.68;100.00;99894.94;5047549;28;20062;-69
2023/01/12 03:42:37;;;;;;;18.33;5.25;;;;;;;7.64;100.00;99882.91;5052701;28;20437;-69
2023/01/12 03:45:14;;;;;;;21.70;5.75;;;;;;;7.67;100.00;99872.34;5034757;28;20033;-69
2023/01/12 03:47:42;;;;;;;15.77;4.78;;;;;;;7.54;100.00;99850.28;5034094;28;20017;-69
2023/01/12 03:50:09;;;;;;;13.43;4.35;;;;;;;7.64;100.00;99848.91;5050632;28;20426;-69
2023/01/12 03:52:36;;;;;;;12.13;4.25;;;;;;;7.61;100.00;99851.69;5034771;28;20029;-68
2023/01/12 03:55:03;;;;;;;19.10;5.13;;;;;;;7.68;100.00;99858.31;5034916;28;20025;-70
2023/01/12 03:57:29;;;;;;;15.50;4.55;;;;;;;7.59;100.00;99840.47;5034436;28;20055;-70
2023/01/12 03:59:55;;;;;;;24.25;4.90;;;;;;;7.64;100.00;99856.75;5052472;28;20084;-70
2023/01/12 04:02:21;;;;;;;20.83;4.50;;;;;;;7.65;100.00;99840.16;5033433;28;20032;-69
2023/01/12 04:04:46;;;;;;;16.20;5.28;;;;;;;7.51;100.00;99808.59;5034470;28;20029;-69
2023/01/12 04:07:11;;;;;;;14.98;4.32;;;;;;;7.62;100.00;99801.94;5052349;28;20025;-67
2023/01/12 04:09:37;;;;;;;13.80;4.28;;;;;;;7.63;100.00;99831.56;5052328;28;20079;-71
2023/01/12 04:12:11;;;;;;;8.60;3.50;;;;;;;7.64;100.00;99817.53;5048298;28;20056;-69
2023/01/12 04:14:44;;;;;;;22.17;4.28;;;;;;;7.63;100.00;99815.88;5052509;28;20033;-69
2023/01/12 04:17:12;;;;;;;12.40;4.47;;;;;;;7.67;100.00;99809.59;5051576;28;20072;-70
2023/01/12 04:19:37;;;;;;;9.88;4.30;;;;;;;7.57;100.00;99790.03;5030557;28;20098;-67
2023/01/12 04:24:47;;;;;;;21.35;5.03;;;;;;;7.70;100.00;99827.75;5052022;28;20059;-69
2023/01/12 04:27:13;;;;;;;10.25;3.70;;;;;;;7.67;100.00;99825.28;5052404;28;20025;-69
2023/01/12 04:29:39;;;;;;;11.52;4.35;;;;;;;7.66;100.00;99800.03;5049426;28;20036;-69
2023/01/12 04:32:05;;;;;;;13.18;4.50;;;;;;;7.67;100.00;99780.81;5050407;28;20033;-68
2023/01/12 04:34:30;;;;;;;12.07;4.22;;;;;;;7.61;100.00;99766.25;5034158;28;20099;-70
2023/01/12 04:36:55;;;;;;;13.45;3.70;;;;;;;7.62;100.00;99749.66;5040600;28;20025;-70
2023/01/12 04:39:21;;;;;;;11.85;3.38;;;;;;;7.66;100.00;99753.81;5052022;28;20148;-68
2023/01/12 04:41:46;;;;;;;12.27;4.60;;;;;;;7.63;100.00;99734.81;5051236;28;20087;-69
2023/01/12 04:44:12;;;;;;;12.88;3.95;;;;;;;7.64;100.00;99754.81;5052311;28;20040;-68
2023/01/12 04:46:38;;;;;;;16.05;4.05;;;;;;;7.64;100.00;99728.66;5051737;28;20026;-69
2023/01/12 04:49:03;;;;;;;11.05;4.43;;;;;;;7.68;100.00;99743.28;5030893;28;20021;-68
2023/01/12 04:51:29;;;;;;;11.65;4.43;;;;;;;7.60;100.00;99732.38;5042146;28;20144;-70
2023/01/12 04:53:54;;;;;;;13.77;4.22;;;;;;;7.63;100.00;99732.22;5033736;28;20534;-69
2023/01/12 04:56:20;;;;;;;16.27;5.00;;;;;;;7.61;100.00;99728.81;5052014;28;20029;-70
2023/01/12 04:58:45;;;;;;;13.48;4.28;;;;;;;7.55;100.00;99714.28;5034014;28;20452;-72
2023/01/12 05:01:15;;;;;;;10.52;4.10;;;;;;;7.64;100.00;99731.28;5051314;28;20025;-68
2023/01/12 05:03:42;;;;;;;11.23;4.57;;;;;;;7.59;100.00;99714.97;5051839;28;20028;-68
2023/01/12 05:06:07;;;;;;;15.98;4.75;;;;;;;7.55;100.00;99700.34;5051988;28;20036;-69
2023/01/12 05:11:17;;;;;;;16.35;3.13;;;;;;;7.62;100.00;99689.53;5043835;28;20079;-67
2023/01/12 05:13:43;;;;;;;21.38;4.07;;;;;;;7.63;100.00;99703.47;5053017;28;20432;-68
2023/01/12 05:16:14;;;;;;;18.17;4.93;;;;;;;7.64;100.00;99716.44;5037821;28;20514;-68
2023/01/12 05:18:43;;;;;;;16.90;4.20;;;;;;;7.63;100.00;99706.06;5042237;28;20107;-69
2023/01/12 05:21:10;;;;;;;16.58;4.05;;;;;;;7.61;100.00;99681.75;5055714;28;20033;-68
2023/01/12 05:23:35;;;;;;;15.15;4.40;;;;;;;7.62;100.00;99684.31;5037508;28;20052;-67
2023/01/12 05:26:02;;;;;;;20.52;5.13;;;;;;;7.64;100.00;99685.06;5055229;28;20479;-68
2023/01/12 05:28:28;;;;;;;17.20;4.78;;;;;;;7.61;100.00;99686.97;5036084;28;20056;-68
2023/01/12 05:30:54;;;;;;;12.48;4.30;;;;;;;7.62;100.00;99686.06;5037534;28;20589;-69
2023/01/12 05:33:19;;;;;;;32.42;5.35;;;;;;;7.63;100.00;99693.00;5036898;28;20033;-68
2023/01/12 05:35:45;;;;;;;19.20;5.20;;;;;;;7.62;100.00;99676.47;5054788;28;20036;-69
2023/01/12 05:38:11;;;;;;;18.45;4.88;;;;;;;7.52;100.00;99661.31;5053973;28;20099;-69
2023/01/12 05:40:36;;;;;;;9.85;3.90;;;;;;;7.56;100.00;99689.84;5055408;28;20116;-68
2023/01/12 05:45:46;;;;;;;17.08;4.85;;;;;;;7.67;100.00;99686.69;5066474;28;20046;-69
2023/01/12 05:48:11;;;;;;;17.88;5.35;;;;;;;7.61;100.00;99681.75;5054931;28;20021;-68
2023/01/12 05:50:37;;;;;;;14.85;4.78;;;;;;;7.54;100.00;99656.84;5054450;28;20387;-68
2023/01/12 05:53:02;;;;;;;22.77;5.10;;;;;;;7.63;100.00;99664.25;5055325;28;20024;-69
2023/01/12 05:55:28;;;;;;;20.77;4.97;;;;;;;7.65;100.00;99660.63;5054931;28;20025;-69
2023/01/12 05:57:53;;;;;;;16.83;4.50;;;;;;;7.71;100.00;99654.22;5036735;28;20021;-69
2023/01/12 06:00:19;;;;;;;18.30;4.43;;;;;;;7.65;100.00;99646.69;5036621;28;20029;-67
2023/01/12 06:02:44;;;;;;;20.90;4.97;;;;;;;7.71;100.00;99651.59;5054532;28;20029;-69
2023/01/12 06:05:09;;;;;;;17.95;4.60;;;;;;;7.72;100.00;99654.16;5036290;28;20039;-70
2023/01/12 06:07:36;;;;;;;8.85;3.33;;;;;;;7.75;100.00;99658.38;5054761;28;20024;-68
2023/01/12 06:10:01;;;;;;;17.80;4.60;;;;;;;7.80;100.00;99656.41;5053248;28;20029;-70
2023/01/12 06:15:11;;;;;;;13.18;4.38;;;;;;;7.83;100.00;99648.38;5054353;28;20408;-69
2023/01/12 06:17:36;;;;;;;13.25;4.25;;;;;;;7.80;100.00;99639.84;5054320;28;20029;-69
2023/01/12 06:20:01;;;;;;;10.13;3.75;;;;;;;7.83;100.00;99640.53;5054313;28;20155;-69
2023/01/12 06:22:27;;;;;;;12.63;4.05;;;;;;;7.85;100.00;99643.06;5053710;28;20028;-70
2023/01/12 06:24:53;;;;;;;10.65;3.95;;;;;;;7.89;100.00;99645.47;5052968;28;20021;-70
2023/01/12 06:27:19;;;;;;;15.93;3.88;;;;;;;7.89;100.00;99655.06;5019957;28;20052;-70
2023/01/12 06:29:44;;;;;;;12.77;3.60;;;;;;;7.90;100.00;99647.16;5035457;28;20044;-69
2023/01/12 06:32:10;;;;;;;17.50;4.03;;;;;;;7.86;100.00;99658.69;5053460;28;20029;-70
2023/01/12 06:34:35;;;;;;;18.05;3.75;;;;;;;7.88;100.00;99643.75;5051654;28;20099;-69
2023/01/12 06:37:02;;;;;;;14.32;4.40;;;;;;;7.96;100.00;99662.53;5053215;28;20033;-70
2023/01/12 06:39:28;;;;;;;18.83;4.57;;;;;;;7.78;100.00;99619.00;5035175;28;20036;-70
2023/01/12 06:44:38;;;;;;;20.90;4.38;;;;;;;8.01;100.00;99665.75;5054183;28;20216;-69
2023/01/12 06:47:03;;;;;;;14.30;3.65;;;;;;;7.94;100.00;99653.91;5053360;28;20103;-69
2023/01/12 06:49:29;;;;;;;12.45;3.83;;;;;;;7.94;100.00;99651.28;5053238;28;20036;-69
2023/01/12 06:51:54;;;;;;;12.02;3.58;;;;;;;7.90;100.00;99634.06;5053176;28;20023;-69
2023/01/12 06:54:20;;;;;;;8.32;3.42;;;;;;;8.03;100.00;99661.28;5052676;28;20053;-69
2023/01/12 06:56:45;;;;;;;10.27;3.25;;;;;;;8.00;100.00;99645.75;5052902;28;20021;-70
2023/01/12 06:59:11;;;;;;;12.63;4.03;;;;;;;8.05;100.00;99664.66;5024070;28;20036;-69
2023/01/12 07:01:37;;;;;;;10.02;3.20;;;;;;;8.05;100.00;99648.97;5049184;28;20025;-68
2023/01/12 07:04:03;;;;;;;10.80;3.13;;;;;;;7.89;100.00;99628.91;5053395;28;20464;-69
2023/01/12 07:06:29;;;;;;;14.43;3.58;;;;;;;8.17;100.00;99666.66;5053217;28;20041;-67
2023/01/12 07:08:54;;;;;;;19.40;3.85;;;;;;;8.12;100.00;99642.50;5035319;28;20095;-70
2023/01/12 07:11:20;;;;;;;13.68;3.53;;;;;;;8.15;100.00;99663.25;5052984;28;20029;-67
2023/01/12 07:13:45;;;;;;;7.40;2.90;;;;;;;8.12;100.00;99658.19;5053246;28;20743;-67
2023/01/12 07:16:11;;;;;;;8.82;3.55;;;;;;;8.15;100.00;99672.88;5041856;28;20057;-75
2023/01/12 07:18:36;;;;;;;12.30;4.07;;;;;;;8.20;100.00;99676.13;5008132;28;20021;-67
2023/01/12 07:21:06;;;;;;;12.40;4.00;;;;;;;8.19;100.00;99674.41;5043744;28;20033;-68
2023/01/12 07:23:31;;;;;;;11.00;3.22;;;;;;;8.22;100.00;99672.47;5052723;28;20076;-67
2023/01/12 07:25:57;;;;;;;7.88;3.00;;;;;;;8.23;100.00;99683.81;5052216;28;20021;-67
2023/01/12 07:28:22;;;;;;;11.23;3.95;;;;;;;8.21;100.00;99667.34;5034514;28;20032;-67
2023/01/12 07:30:48;;;;;;;12.95;3.13;;;;;;;8.23;100.00;99670.72;5051203;28;21548;-67
2023/01/12 07:33:14;;;;;;;8.13;2.50;;;;;;;8.18;100.00;99672.72;5051674;28;20028;-68
2023/01/12 07:35:40;;;;;;;12.57;3.50;;;;;;;8.28;100.00;99686.19;5051796;28;20029;-67
2023/01/12 07:38:06;;;;;;;10.60;3.10;;;;;;;8.26;100.00;99667.09;5052102;28;20031;-68
2023/01/12 07:40:32;;;;;;;9.48;2.47;;;;;;;8.26;100.00;99681.03;5045853;28;20124;-71
2023/01/12 07:43:02;;;;;;;12.40;2.60;;;;;;;8.33;100.00;99686.81;5028969;28;20685;-67
2023/01/12 07:45:28;;;;;;;6.95;2.42;;;;;;;8.29;100.00;99686.13;5027703;28;20025;-67
2023/01/12 07:47:53;;;;;;;9.40;2.72;;;;;;;8.30;100.00;99686.97;5019211;28;20759;-69
2023/01/12 07:50:23;;;;;;;7.88;2.30;;;;;;;8.34;100.00;99675.44;5014537;28;20044;-69
2023/01/12 07:52:48;;;;;;;9.98;2.83;;;;;;;8.30;100.00;99674.75;5033255;28;20032;-68
2023/01/12 07:55:15;;;;;;;11.60;2.65;;;;;;;8.15;100.00;99678.97;5033549;28;20033;-70
2023/01/12 07:58:06;;;;;;;9.40;2.47;;;;;;;8.34;100.00;99693.75;5033788;28;20037;-68
2023/01/12 08:00:31;;;;;;;8.07;2.72;;;;;;;8.36;100.00;99703.19;5033663;28;20035;-67
2023/01/12 08:03:05;;;;;;;10.95;2.90;;;;;;;8.39;100.00;99691.72;5032463;28;20029;-69
2023/01/12 08:05:31;;;;;;;5.13;2.30;;;;;;;8.33;100.00;99702.53;5034318;28;20035;-68
2023/01/12 08:07:56;;;;;;;7.72;2.08;;;;;;;8.32;100.00;99695.59;5032398;28;20033;-69
2023/01/12 08:10:21;;;;;;;7.32;2.58;;;;;;;8.38;100.00;99705.75;5023857;28;20430;-69
2023/01/12 08:12:49;;;;;;;5.53;2.30;;;;;;;8.27;100.00;99687.97;5028632;28;20381;-68
2023/01/12 08:15:15;;;;;;;7.40;2.78;;;;;;;8.23;100.00;99689.03;5030592;28;20067;-68
2023/01/12 08:18:04;;;;;;;5.43;2.13;;;;;;;8.45;100.00;99739.38;5011094;28;20029;-68
2023/01/12 08:20:33;;;;;;;5.72;2.15;;;;;;;8.47;100.00;99715.72;5025359;28;20049;-69
2023/01/12 08:23:04;;;;;;;13.40;3.00;;;;;;;8.50;100.00;99726.03;5028700;28;20040;-68
2023/01/12 08:25:33;;;;;;;9.82;3.15;;;;;;;8.38;100.00;99709.19;5017691;28;20107;-67
2023/01/12 08:28:01;;;;;;;8.38;2.50;;;;;;;8.41;100.00;99708.22;5027348;28;20565;-69
2023/01/12 08:30:27;;;;;;;6.25;2.40;;;;;;;8.42;100.00;99707.25;5042253;28;20618;-67
2023/01/12 08:32:57;;;;;;;7.45;2.50;;;;;;;8.51;100.00;99732.97;5030104;28;20043;-68
2023/01/12 08:35:25;;;;;;;9.05;2.50;;;;;;;8.50;100.00;99726.91;5029278;28;20025;-67
2023/01/12 08:37:50;;;;;;;4.85;1.90;;;;;;;8.45;100.00;99718.41;5006693;28;20037;-69
2023/01/12 08:40:16;;;;;;;6.25;2.45;;;;;;;8.49;100.00;99725.19;5028560;28;20044;-67
2023/01/12 08:42:42;;;;;;;12.65;2.58;;;;;;;8.53;100.00;99715.41;5022809;28;20041;-67
2023/01/12 08:45:08;;;;;;;8.75;2.58;;;;;;;8.42;100.00;99708.13;4989250;28;20087;-67
2023/01/12 08:47:33;;;;;;;9.25;2.78;;;;;;;8.60;100.00;99732.50;4990238;28;20864;-69
2023/01/12 08:49:59;;;;;;;17.77;3.40;;;;;;;8.44;100.00;99708.03;5018695;28;20026;-67
2023/01/12 08:52:28;;;;;;;5.40;1.88;;;;;;;8.59;100.00;99730.78;5050133;28;20558;-66
2023/01/12 08:54:54;;;;;;;7.90;2.15;;;;;;;8.64;100.00;99745.34;5046573;28;20025;-67
2023/01/12 08:57:19;;;;;;;12.07;2.88;;;;;;;8.58;100.00;99739.59;5055193;28;20048;-67
2023/01/12 08:59:45;;;;;;;7.43;3.15;;;;;;;8.60;100.00;99730.72;5055401;28;20057;-66
2023/01/12 09:02:11;;;;;;;9.70;3.00;;;;;;;8.65;100.00;99735.72;5054680;28;20024;-67
2023/01/12 09:04:39;;;;;;;12.68;2.75;;;;;;;8.60;100.00;99728.09;5055329;28;20029;-67
2023/01/12 09:07:05;;;;;;;9.68;3.15;;;;;;;8.47;100.00;99692.19;5055762;28;20020;-67
2023/01/12 09:09:30;;;;;;;8.30;2.80;;;;;;;8.64;100.00;99718.31;5053932;28;20108;-67
2023/01/12 09:11:56;;;;;;;7.00;2.63;;;;;;;8.71;100.00;99725.78;5054967;28;20112;-68
2023/01/12 09:14:21;;;;;;;7.60;2.85;;;;;;;8.73;100.00;99738.75;5051912;28;20033;-68
2023/01/12 09:16:47;;;;;;;12.43;2.63;;;;;;;8.68;100.00;99730.31;5055001;28;20024;-68
2023/01/12 09:19:12;;;;;;;9.98;2.90;;;;;;;8.76;100.00;99759.56;5054870;28;20039;-68
2023/01/12 09:21:39;;;;;;;5.97;2.17;;;;;;;8.75;100.00;99757.88;5055591;28;20029;-68
2023/01/12 09:24:05;;;;;;;15.27;3.17;;;;;;;8.79;100.00;99767.25;5026883;28;20029;-68
2023/01/12 09:26:36;;;;;;;11.95;2.90;;;;;;;8.80;100.00;99750.59;5054194;28;20394;-68
2023/01/12 09:29:03;;;;;;;7.32;2.58;;;;;;;8.82;100.00;99761.03;5054482;28;20098;-67
2023/01/12 09:31:29;;;;;;;7.10;2.70;;;;;;;8.80;100.00;99763.72;5051330;28;20083;-67
2023/01/12 09:33:56;;;;;;;10.30;3.25;;;;;;;8.82;100.00;99764.47;5052503;28;20040;-68
2023/01/12 09:36:23;;;;;;;10.85;3.22;;;;;;;8.83;100.00;99766.16;5046019;28;20020;-68
2023/01/12 09:38:49;;;;;;;11.55;2.83;;;;;;;8.86;100.00;99780.84;5053664;28;20454;-67
2023/01/12 09:47:07;;;;;;;7.53;2.65;;;;;;;8.91;100.00;99769.22;5054631;28;20064;-67
2023/01/12 09:49:37;;;;;;;7.93;2.28;;;;;;;8.92;100.00;99762.22;5054797;28;20043;-67
2023/01/12 09:52:28;;;;;;;14.65;2.63;;;;;;;8.96;100.00;99767.19;5053730;28;20360;-67
2023/01/12 09:54:53;;;;;;;7.80;2.67;;;;;;;8.94;100.00;99783.94;5052010;28;20032;-67
2023/01/12 09:57:33;;;;;;;8.00;2.42;;;;;;;8.97;100.00;99797.72;5051443;28;20501;-68
2023/01/12 10:00:18;;;;;;;9.90;2.90;;;;;;;8.99;100.00;99790.59;5044803;28;20021;-67
2023/01/12 10:03:10;;;;;;;5.95;2.42;;;;;;;9.04;100.00;99793.84;5041209;28;20480;-67
2023/01/12 10:05:36;;;;;;;5.75;2.28;;;;;;;9.02;100.00;99798.31;5053071;28;20020;-68
2023/01/12 10:08:02;;;;;;;7.72;2.20;;;;;;;9.05;100.00;99792.06;5053631;28;20066;-67
2023/01/12 10:10:27;;;;;;;8.25;2.70;;;;;;;9.01;100.00;99785.31;5052989;28;20041;-67
2023/01/12 10:12:59;;;;;;;8.68;2.58;;;;;;;8.87;100.00;99762.47;5052064;28;20025;-68
2023/01/12 10:15:39;;;;;;;11.25;2.78;;;;;;;9.08;100.00;99799.78;5034143;28;20047;-67
2023/01/12 10:18:38;;;;;;;8.32;2.83;;;;;;;9.06;100.00;99805.06;5032874;28;20372;-67
2023/01/12 10:21:09;;;;;;;7.93;2.33;;;;;;;9.06;100.00;99797.22;5031971;28;20124;-67
2023/01/12 10:23:35;;;;;;;5.45;2.20;;;;;;;8.75;100.00;99742.16;5053424;28;20047;-67
2023/01/12 10:26:16;;;;;;;6.32;1.92;;;;;;;9.08;100.00;99795.38;5052188;28;20124;-67
2023/01/12 10:28:42;;;;;;;7.88;2.53;;;;;;;9.08;100.00;99781.44;5052819;28;20037;-68
2023/01/12 10:31:11;;;;;;;5.22;2.50;;;;;;;9.07;100.00;99796.28;5053056;28;20059;-67
2023/01/12 10:33:37;;;;;;;9.80;2.55;;;;;;;9.12;100.00;99777.72;5035262;28;20579;-67
2023/01/12 10:36:08;;;;;;;9.65;2.30;;;;;;;9.12;100.00;99770.69;5052584;28;20112;-68
2023/01/12 10:38:39;;;;;;;7.63;2.95;;;;;;;9.05;100.00;99766.72;5053133;28;20039;-69
2023/01/12 10:41:12;;;;;;;5.63;2.30;;;;;;;9.12;100.00;99780.34;5034602;28;20495;-68
2023/01/12 10:43:39;;;;;;;6.65;2.22;;;;;;;9.05;100.00;99750.16;5052768;28;20072;-67
2023/01/12 10:46:26;;;;;;;10.30;2.40;;;;;;;9.15;100.00;99783.63;5052561;28;20459;-66
2023/01/12 10:49:14;;;;;;;7.45;2.60;;;;;;;9.11;100.00;99766.38;5052150;28;20033;-67
2023/01/12 10:51:57;;;;;;;6.85;2.50;;;;;;;9.10;100.00;99766.44;5035037;28;20036;-67
2023/01/12 10:54:32;;;;;;;10.80;2.67;;;;;;;9.16;100.00;99780.06;5052423;28;20119;-67
2023/01/12 10:57:00;;;;;;;9.38;2.58;;;;;;;9.15;100.00;99773.16;5052210;28;20032;-68
2023/01/12 10:59:34;;;;;;;7.85;2.65;;;;;;;9.21;100.00;99783.31;5034864;28;20021;-67
2023/01/12 11:02:02;;;;;;;8.15;2.15;;;;;;;9.23;100.00;99767.47;5052282;28;20029;-69
2023/01/12 11:04:29;;;;;;;6.32;2.85;;;;;;;9.23;100.00;99785.81;5052509;28;20033;-67
2023/01/12 11:07:29;;;;;;;4.75;1.83;;;;;;;9.25;100.00;99776.13;5033591;28;20024;-68
2023/01/12 11:09:57;;;;;;;6.85;2.63;;;;;;;9.25;100.00;99768.25;5047646;28;20115;-69
2023/01/12 11:12:37;;;;;;;6.28;2.30;;;;;;;9.17;100.00;99760.81;5031911;28;20479;-67
2023/01/12 11:15:14;;;;;;;12.07;2.80;;;;;;;9.17;100.00;99760.81;5067250;28;20112;-67
2023/01/12 11:17:45;;;;;;;12.63;2.30;;;;;;;9.22;100.00;99771.91;5051214;28;20075;-68
2023/01/12 11:20:33;;;;;;;7.07;2.05;;;;;;;9.24;100.00;99777.03;5052787;28;20450;-67
2023/01/12 11:23:02;;;;;;;9.80;3.67;;;;;;;9.21;100.00;99769.34;5033262;28;20423;-67
2023/01/12 11:25:32;;;;;;;5.65;2.08;;;;;;;9.22;100.00;99769.28;5051739;28;20589;-67
2023/01/12 11:28:03;;;;;;;6.03;2.00;;;;;;;9.20;100.00;99771.13;5051594;28;20029;-67
2023/01/12 11:30:33;;;;;;;9.23;2.17;;;;;;;9.14;100.00;99758.34;5029839;28;20043;-66
2023/01/12 11:33:30;;;;;;;5.90;1.75;;;;;;;9.22;100.00;99774.50;5040498;28;20533;-68
2023/01/12 11:36:06;;;;;;;8.80;2.38;;;;;;;9.22;100.00;99769.28;5034596;28;20387;-67
2023/01/12 11:38:42;;;;;;;6.82;2.40;;;;;;;9.20;100.00;99771.13;5052555;28;20025;-66
2023/01/12 11:41:33;;;;;;;5.38;2.20;;;;;;;9.07;100.00;99737.78;5047992;28;20131;-70
2023/01/12 11:44:08;;;;;;;5.80;2.20;;;;;;;9.18;100.00;99756.41;5051094;28;20048;-67
2023/01/12 11:46:42;;;;;;;5.75;2.08;;;;;;;9.14;100.00;99760.97;5023635;28;20104;-67
2023/01/12 11:49:16;;;;;;;11.45;2.65;;;;;;;9.18;100.00;99772.97;5052223;28;20471;-67
2023/01/12 11:51:42;;;;;;;6.05;1.98;;;;;;;9.14;100.00;99749.63;5050863;28;20420;-67
2023/01/12 11:54:15;;;;;;;6.25;2.00;;;;;;;9.11;100.00;99749.81;5033150;28;20116;-67
2023/01/12 11:57:14;;;;;;;6.05;1.90;;;;;;;9.26;100.00;99766.47;5033760;28;20061;-67
2023/01/12 12:00:13;;;;;;;6.68;2.40;;;;;;;9.23;100.00;99763.06;5037946;28;20098;-67
2023/01/12 12:03:04;;;;;;;4.43;1.63;;;;;;;9.24;100.00;99753.44;5011483;28;20131;-68
2023/01/12 12:05:40;;;;;;;7.22;2.20;;;;;;;9.20;100.00;99754.53;5046560;28;20849;-68
2023/01/12 12:08:11;;;;;;;8.68;1.55;;;;;;;9.20;100.00;99768.50;5046523;28;20043;-69